CGM weather

Camiguin Airport
Camiguin Province, Philippines

Public forecast

Using degrees Celsius for public forecast. Weather courtesy of forecast.io.

Closest aviation weather report (METAR) to Camiguin Airport

Report is more than 6 hours old.

Closest report is Cagayan De Oro Airport, 50.6 nm (93.8 km) S. Retrieved 2019/10/09 07:00 UTC (8 months ago):

RPML 090700Z 11006KT 9000 SCT020 BKN100 32/22 Q1009 NOSIG RMK A2980

Closest aviation forecast (TAF) to Camiguin Airport

Forecast is more than 12 hours old.

Closest forecast is Cagayan De Oro Airport, 50.6 nm (93.8 km) S. Retrieved 2013/10/16 12:12 UTC (7 years ago):

TAF RPML 161100Z 1612/1712 34005KT 9999 FEW018 SCT080 TEMPO 1612/1618 02003KT 8000 -RA FEW017CB SCT018 BKN080